Time;durP1;ratioP1;P1;durP2;ratioP2;P2;SDS_P1;SDS_P2;PMS_P1;PMS_P2;Temp;Humidity;BMP_temperature;BMP_pressure;BME280_temperature;BME280_humidity;BME280_pressure;Samples;Min_cycle;Max_cycle;Signal;HPM_P1;HPM_P2
2022/01/10 00:00:56;;;;;;;11.88;6.70;;;6.30;87.50;;;;;;1872672;77;21123;-44
2022/01/10 00:03:25;;;;;;;11.25;6.95;;;6.30;87.80;;;;;;1872720;77;21472;-44
2022/01/10 00:05:54;;;;;;;8.23;6.28;;;6.30;87.40;;;;;;1872781;76;21029;-44
2022/01/10 00:08:24;;;;;;;9.10;6.55;;;6.30;87.40;;;;;;1872750;75;21034;-45
2022/01/10 00:10:53;;;;;;;11.03;6.72;;;6.30;87.90;;;;;;1872712;77;21029;-45
2022/01/10 00:13:22;;;;;;;12.78;7.37;;;6.30;88.10;;;;;;1872797;75;21150;-45
2022/01/10 00:15:52;;;;;;;12.15;6.90;;;6.30;87.90;;;;;;1872807;75;21179;-45
2022/01/10 00:18:21;;;;;;;11.85;6.80;;;6.30;87.80;;;;;;1872685;76;21037;-45
2022/01/10 00:20:50;;;;;;;12.40;7.35;;;6.20;87.80;;;;;;1872680;75;21081;-44
2022/01/10 00:23:20;;;;;;;9.35;5.92;;;6.10;87.30;;;;;;1872801;75;21080;-45
2022/01/10 00:25:49;;;;;;;11.35;6.37;;;6.10;87.80;;;;;;1872657;75;21041;-44
2022/01/10 00:28:19;;;;;;;12.10;6.65;;;6.00;88.00;;;;;;1872812;75;21085;-45
2022/01/10 00:30:48;;;;;;;10.08;6.40;;;6.10;88.10;;;;;;1872664;76;21084;-44
2022/01/10 00:33:17;;;;;;;14.18;7.65;;;6.00;88.00;;;;;;1872693;77;21139;-44
2022/01/10 00:35:47;;;;;;;10.65;6.33;;;6.00;88.10;;;;;;1872703;75;21092;-44
2022/01/10 00:38:16;;;;;;;12.30;6.80;;;6.00;88.10;;;;;;1872669;75;21033;-46
2022/01/10 00:40:48;;;;;;;14.28;7.72;;;6.00;88.10;;;;;;1872664;76;21097;-44
2022/01/10 00:43:30;;;;;;;12.47;7.15;;;6.00;88.30;;;;;;1872629;75;21099;-44
2022/01/10 00:45:50;;;;;;;13.88;6.85;;;5.90;88.10;;;;;;1871108;75;21534;-44
2022/01/10 00:48:19;;;;;;;12.03;7.25;;;5.90;88.20;;;;;;1872699;77;21002;-44
2022/01/10 00:50:48;;;;;;;12.45;7.45;;;6.00;88.60;;;;;;1872682;75;21033;-44
2022/01/10 00:53:18;;;;;;;13.20;7.22;;;6.00;88.70;;;;;;1872818;76;21067;-44
2022/01/10 00:55:48;;;;;;;10.72;7.22;;;6.00;88.60;;;;;;1873076;77;21037;-45
2022/01/10 00:58:18;;;;;;;10.50;6.25;;;6.00;88.60;;;;;;1872868;75;21053;-44
2022/01/10 01:00:47;;;;;;;12.47;6.67;;;6.00;88.50;;;;;;1872789;75;21038;-45
2022/01/10 01:03:17;;;;;;;14.87;6.47;;;6.00;88.50;;;;;;1872892;76;21038;-45
2022/01/10 01:05:46;;;;;;;15.10;6.55;;;6.10;88.60;;;;;;1872841;77;21119;-44
2022/01/10 01:08:16;;;;;;;10.58;7.22;;;6.10;88.60;;;;;;1872894;75;21115;-44
2022/01/10 01:13:37;;;;;;;10.48;6.17;;;6.10;88.80;;;;;;1872800;75;21112;-45
2022/01/10 01:16:12;;;;;;;9.03;6.92;;;6.10;88.70;;;;;;1870464;76;21061;-44
2022/01/10 01:24:02;;;;;;;12.65;7.58;;;6.10;88.60;;;;;;1872847;75;21096;-44
2022/01/10 01:26:37;;;;;;;14.45;6.35;;;6.10;88.50;;;;;;1872883;75;21053;-44
2022/01/10 01:29:08;;;;;;;14.40;6.95;;;6.10;88.60;;;;;;1873346;75;21032;-44
2022/01/10 01:31:38;;;;;;;15.20;7.40;;;6.10;88.80;;;;;;1872864;76;21096;-45
2022/01/10 01:34:08;;;;;;;9.30;6.05;;;6.00;88.70;;;;;;1872896;77;21103;-45
2022/01/10 01:36:37;;;;;;;12.47;6.80;;;6.10;88.90;;;;;;1872807;75;21065;-44
2022/01/10 01:39:18;;;;;;;9.03;6.75;;;6.10;88.80;;;;;;1873013;76;21087;-44
2022/01/10 01:41:41;;;;;;;10.65;6.67;;;6.10;88.80;;;;;;1870730;75;21456;-44
2022/01/10 01:44:10;;;;;;;12.07;7.00;;;6.00;88.70;;;;;;1872884;75;21104;-45
2022/01/10 01:46:42;;;;;;;10.43;6.25;;;6.00;88.80;;;;;;1872960;75;21041;-45
2022/01/10 01:49:12;;;;;;;9.33;6.42;;;6.00;88.70;;;;;;1872899;75;21084;-44
2022/01/10 01:51:42;;;;;;;10.93;5.92;;;6.00;88.90;;;;;;1872930;75;21104;-44
2022/01/10 01:54:12;;;;;;;13.00;7.00;;;6.00;88.80;;;;;;1872970;76;21089;-44
2022/01/10 01:56:42;;;;;;;9.90;6.28;;;6.00;88.80;;;;;;1872985;75;21077;-44
2022/01/10 01:59:12;;;;;;;7.87;5.62;;;6.00;88.90;;;;;;1872876;75;21073;-44
2022/01/10 02:01:42;;;;;;;10.38;5.85;;;6.00;89.00;;;;;;1872829;75;21073;-44
2022/01/10 02:04:11;;;;;;;7.87;5.03;;;6.00;89.10;;;;;;1872855;75;21025;-45
2022/01/10 02:06:41;;;;;;;12.10;6.78;;;6.00;89.00;;;;;;1839085;77;21034;-44
2022/01/10 02:09:14;;;;;;;10.38;6.30;;;6.10;88.80;;;;;;1872872;77;21037;-44
2022/01/10 02:11:44;;;;;;;8.73;6.03;;;6.10;88.90;;;;;;1872854;76;21046;-44
2022/01/10 02:14:16;;;;;;;7.90;5.55;;;6.00;89.10;;;;;;1872846;76;21068;-44
2022/01/10 02:16:53;;;;;;;8.40;5.67;;;6.00;89.20;;;;;;1872909;76;21038;-44
2022/01/10 02:19:34;;;;;;;11.70;7.12;;;6.00;89.00;;;;;;1873046;76;21057;-46
2022/01/10 02:22:04;;;;;;;8.58;6.08;;;6.00;89.10;;;;;;1872802;76;21029;-44
2022/01/10 02:24:35;;;;;;;12.55;6.37;;;6.00;89.00;;;;;;1870669;76;21049;-44
2022/01/10 02:27:06;;;;;;;10.30;7.03;;;6.00;88.90;;;;;;1872833;75;21038;-44
2022/01/10 02:29:36;;;;;;;9.23;6.15;;;6.00;88.90;;;;;;1872824;75;21080;-44
2022/01/10 02:32:05;;;;;;;13.28;6.90;;;5.90;88.70;;;;;;1872828;76;21009;-45
2022/01/10 02:34:35;;;;;;;12.33;6.62;;;5.90;88.90;;;;;;1872787;77;21049;-45
2022/01/10 02:37:05;;;;;;;8.53;6.40;;;5.80;88.20;;;;;;1872703;75;21030;-44
2022/01/10 02:39:36;;;;;;;10.98;6.08;;;5.70;88.80;;;;;;1872874;77;21515;-44
2022/01/10 02:42:05;;;;;;;9.03;5.90;;;5.70;89.10;;;;;;1872749;76;21029;-45
2022/01/10 02:44:34;;;;;;;11.80;6.45;;;5.60;89.10;;;;;;1872861;76;21033;-44
2022/01/10 02:47:04;;;;;;;11.10;6.25;;;5.60;89.30;;;;;;1872880;77;21095;-44
2022/01/10 02:49:35;;;;;;;8.83;6.10;;;5.70;89.40;;;;;;1872673;76;21097;-44
2022/01/10 02:52:06;;;;;;;8.90;6.37;;;5.70;89.00;;;;;;1872830;76;21103;-45
2022/01/10 02:54:36;;;;;;;12.10;6.90;;;5.70;89.20;;;;;;1872842;75;21010;-45
2022/01/10 02:57:07;;;;;;;9.55;6.33;;;5.70;89.30;;;;;;1871359;76;21100;-45
2022/01/10 02:59:37;;;;;;;14.28;7.17;;;5.60;88.40;;;;;;1872750;75;21069;-44
2022/01/10 03:02:08;;;;;;;11.83;6.50;;;5.60;88.90;;;;;;1872792;76;21087;-44
2022/01/10 03:04:38;;;;;;;13.30;7.37;;;5.50;89.20;;;;;;1872776;75;21448;-44
2022/01/10 03:07:07;;;;;;;14.05;7.00;;;5.50;89.30;;;;;;1872814;76;21034;-45
2022/01/10 03:09:37;;;;;;;10.18;6.70;;;5.60;89.30;;;;;;1872805;76;21037;-44
2022/01/10 03:12:09;;;;;;;10.60;6.65;;;5.50;88.90;;;;;;1872856;76;21049;-44
2022/01/10 03:14:38;;;;;;;9.30;6.55;;;5.50;89.10;;;;;;1872825;75;21464;-44
2022/01/10 03:17:09;;;;;;;9.03;6.12;;;5.50;89.20;;;;;;1872725;76;21131;-44
2022/01/10 03:19:42;;;;;;;11.25;6.67;;;5.50;89.40;;;;;;1872752;75;21010;-44
2022/01/10 03:22:11;;;;;;;17.15;8.85;;;5.60;89.60;;;;;;1872813;77;21084;-44
2022/01/10 03:24:41;;;;;;;13.50;8.70;;;5.60;89.50;;;;;;1872797;76;21100;-44
2022/01/10 03:27:11;;;;;;;15.13;8.23;;;5.60;89.30;;;;;;1872923;76;21113;-44
2022/01/10 03:29:40;;;;;;;18.62;8.73;;;5.60;89.10;;;;;;1872828;75;21163;-44
2022/01/10 03:32:11;;;;;;;17.95;9.13;;;5.60;88.90;;;;;;1872791;75;21029;-44
2022/01/10 03:34:41;;;;;;;17.57;9.88;;;5.60;87.60;;;;;;1872838;75;21484;-44
2022/01/10 03:37:10;;;;;;;15.98;9.78;;;5.40;86.90;;;;;;1872753;76;21026;-44
2022/01/10 03:39:41;;;;;;;21.87;9.93;;;5.30;87.70;;;;;;1872806;75;21104;-44
2022/01/10 03:42:12;;;;;;;19.98;11.05;;;5.20;88.00;;;;;;1872761;76;21025;-44
2022/01/10 03:44:41;;;;;;;17.48;11.20;;;5.20;88.50;;;;;;1872889;77;21104;-44
2022/01/10 03:47:11;;;;;;;19.27;11.38;;;5.30;88.70;;;;;;1872754;77;21123;-44
2022/01/10 03:49:41;;;;;;;29.63;19.50;;;5.30;88.60;;;;;;1872845;77;21084;-44
2022/01/10 03:52:10;;;;;;;13.10;7.12;;;5.20;88.10;;;;;;1872689;76;21100;-44
2022/01/10 03:54:40;;;;;;;12.05;7.17;;;5.20;88.20;;;;;;1872798;77;21101;-43
2022/01/10 03:57:10;;;;;;;17.48;7.45;;;5.10;88.40;;;;;;1872794;76;21085;-44
2022/01/10 03:59:40;;;;;;;14.73;9.03;;;5.10;88.50;;;;;;1872718;75;21065;-44
2022/01/10 04:02:10;;;;;;;21.00;8.45;;;5.10;88.50;;;;;;1872704;75;21037;-44
2022/01/10 04:04:39;;;;;;;14.05;7.62;;;5.10;88.70;;;;;;1872759;76;21025;-43
2022/01/10 04:07:09;;;;;;;14.25;7.62;;;5.00;88.80;;;;;;1872788;76;21049;-45
2022/01/10 04:09:39;;;;;;;19.45;7.55;;;5.10;89.00;;;;;;1872757;76;21030;-43
2022/01/10 04:12:08;;;;;;;16.40;8.20;;;5.10;88.80;;;;;;1872667;75;21104;-43
2022/01/10 04:14:38;;;;;;;13.00;6.97;;;5.10;89.00;;;;;;1872773;77;21025;-44
2022/01/10 04:17:07;;;;;;;14.83;7.60;;;5.10;89.00;;;;;;1872657;75;21065;-44
2022/01/10 04:19:37;;;;;;;17.70;8.55;;;5.10;89.70;;;;;;1872865;75;21021;-44
2022/01/10 04:22:06;;;;;;;29.02;12.78;;;5.10;89.00;;;;;;1872710;75;21038;-44
2022/01/10 04:24:36;;;;;;;26.05;11.70;;;5.10;88.80;;;;;;1872738;75;21005;-44
2022/01/10 04:27:05;;;;;;;29.45;12.90;;;5.10;88.60;;;;;;1872744;76;21107;-44
2022/01/10 04:29:35;;;;;;;44.63;25.90;;;5.10;88.80;;;;;;1872750;77;21037;-44
2022/01/10 04:32:05;;;;;;;169.60;95.87;;;5.10;88.80;;;;;;1872816;77;21092;-44
2022/01/10 04:34:34;;;;;;;55.98;32.80;;;5.10;88.90;;;;;;1872800;76;21029;-44
2022/01/10 04:37:04;;;;;;;58.90;32.70;;;5.10;89.00;;;;;;1872857;76;21030;-44
2022/01/10 04:39:33;;;;;;;45.15;28.32;;;5.10;89.00;;;;;;1872843;77;21049;-45
2022/01/10 04:42:03;;;;;;;36.28;20.62;;;5.10;89.20;;;;;;1872789;75;21053;-43
2022/01/10 04:44:32;;;;;;;42.38;14.85;;;5.10;88.60;;;;;;1872785;75;21151;-44
2022/01/10 04:47:02;;;;;;;23.10;11.30;;;5.00;88.60;;;;;;1872894;77;21037;-44
2022/01/10 04:49:43;;;;;;;20.30;10.48;;;5.10;89.10;;;;;;1872916;75;21119;-44
2022/01/10 04:52:02;;;;;;;28.27;10.93;;;5.00;89.00;;;;;;1870285;76;21109;-44
2022/01/10 04:54:32;;;;;;;30.60;13.28;;;5.10;89.00;;;;;;1872768;77;21041;-46
2022/01/10 04:57:01;;;;;;;22.62;10.50;;;5.00;88.90;;;;;;1872773;76;21014;-44
2022/01/10 04:59:31;;;;;;;23.57;10.65;;;5.00;88.80;;;;;;1872795;75;21156;-46
2022/01/10 05:02:00;;;;;;;23.55;11.08;;;5.00;89.20;;;;;;1872765;76;21022;-44
2022/01/10 05:04:29;;;;;;;24.15;12.23;;;5.00;89.20;;;;;;1872964;75;21034;-44
2022/01/10 05:06:58;;;;;;;24.87;12.20;;;5.00;89.30;;;;;;1872897;75;21095;-44
2022/01/10 05:09:28;;;;;;;17.20;9.95;;;5.10;89.30;;;;;;1872755;75;21041;-44
2022/01/10 05:11:59;;;;;;;15.53;9.75;;;5.10;89.20;;;;;;1871668;77;21076;-44
2022/01/10 05:14:29;;;;;;;16.07;9.23;;;5.10;89.20;;;;;;1872738;77;21097;-45
2022/01/10 05:16:58;;;;;;;20.43;9.40;;;5.10;89.20;;;;;;1872794;76;21095;-44
2022/01/10 05:19:28;;;;;;;26.85;10.70;;;5.10;89.20;;;;;;1872725;76;21034;-45
2022/01/10 05:21:57;;;;;;;33.18;13.43;;;5.10;89.20;;;;;;1872731;75;21131;-44
2022/01/10 05:24:27;;;;;;;21.17;8.60;;;5.10;89.40;;;;;;1872724;77;21065;-44
2022/01/10 05:26:56;;;;;;;24.90;9.38;;;5.20;89.20;;;;;;1872684;76;21034;-45
2022/01/10 05:29:26;;;;;;;20.37;10.18;;;5.10;89.10;;;;;;1872715;75;21009;-44
2022/01/10 05:31:56;;;;;;;20.30;12.73;;;5.10;89.20;;;;;;1872921;76;21128;-44
2022/01/10 05:34:30;;;;;;;27.15;15.28;;;5.10;89.40;;;;;;1871352;75;21143;-45
2022/01/10 05:36:59;;;;;;;19.20;11.45;;;5.10;89.30;;;;;;1872715;76;21525;-45
2022/01/10 05:39:29;;;;;;;28.73;13.05;;;5.10;89.30;;;;;;1872636;76;21029;-45
2022/01/10 05:41:58;;;;;;;33.00;11.22;;;5.20;89.50;;;;;;1872826;76;21042;-44
2022/01/10 05:44:28;;;;;;;17.00;10.40;;;5.20;89.40;;;;;;1872801;77;21025;-44
2022/01/10 05:46:59;;;;;;;41.50;17.27;;;5.20;89.40;;;;;;1872762;75;21088;-44
2022/01/10 05:49:33;;;;;;;32.98;18.15;;;5.20;89.00;;;;;;1872898;76;21055;-45
2022/01/10 05:52:01;;;;;;;25.95;12.65;;;5.20;89.20;;;;;;1872449;76;21270;-44
2022/01/10 05:54:35;;;;;;;31.42;12.98;;;5.20;89.20;;;;;;1872437;76;21167;-45
2022/01/10 05:57:05;;;;;;;30.75;13.65;;;5.20;89.20;;;;;;1872770;76;21050;-45
2022/01/10 05:59:36;;;;;;;27.35;10.90;;;5.20;89.20;;;;;;1872943;75;21488;-44
2022/01/10 06:02:07;;;;;;;18.02;11.18;;;5.20;89.20;;;;;;1872663;77;21115;-44
2022/01/10 06:04:36;;;;;;;22.55;10.50;;;5.20;89.10;;;;;;1872800;77;21049;-45
2022/01/10 06:07:07;;;;;;;17.98;8.98;;;5.20;89.00;;;;;;1871161;75;21074;-44
2022/01/10 06:09:37;;;;;;;17.40;10.70;;;5.20;89.00;;;;;;1872748;77;21103;-44
2022/01/10 06:12:07;;;;;;;20.20;10.25;;;5.20;89.10;;;;;;1872735;75;21057;-44
2022/01/10 06:14:36;;;;;;;20.35;9.95;;;5.20;89.10;;;;;;1872774;75;21049;-45
2022/01/10 06:17:06;;;;;;;17.40;9.20;;;5.30;89.20;;;;;;1872745;77;21162;-46
2022/01/10 06:19:35;;;;;;;28.30;11.25;;;5.30;89.20;;;;;;1872708;77;21034;-45
2022/01/10 06:22:05;;;;;;;16.27;9.33;;;5.30;89.30;;;;;;1872724;77;21030;-44
2022/01/10 06:24:36;;;;;;;21.70;10.58;;;5.30;89.20;;;;;;1872608;76;21502;-44
2022/01/10 06:27:06;;;;;;;21.62;10.18;;;5.30;89.10;;;;;;1872821;75;21120;-45
2022/01/10 06:29:35;;;;;;;18.70;10.30;;;5.30;89.10;;;;;;1872751;76;21128;-44
2022/01/10 06:32:06;;;;;;;38.42;19.52;;;5.40;88.80;;;;;;1872692;75;21100;-44
2022/01/10 06:34:35;;;;;;;27.65;13.25;;;5.30;88.90;;;;;;1872678;76;21006;-45
2022/01/10 06:37:05;;;;;;;18.75;11.53;;;5.30;88.70;;;;;;1872623;75;21535;-44
2022/01/10 06:39:36;;;;;;;32.88;18.27;;;5.30;88.70;;;;;;1871850;76;21050;-44
2022/01/10 06:42:05;;;;;;;29.35;17.30;;;5.30;88.90;;;;;;1872774;76;21127;-44
2022/01/10 06:44:35;;;;;;;34.03;20.45;;;5.40;88.50;;;;;;1872760;76;21076;-44
2022/01/10 06:47:05;;;;;;;34.20;18.40;;;5.40;88.60;;;;;;1872706;77;21154;-45
2022/01/10 06:49:34;;;;;;;27.20;16.30;;;5.40;88.70;;;;;;1872672;75;21080;-44
2022/01/10 06:52:04;;;;;;;32.38;18.35;;;5.40;88.10;;;;;;1872788;76;21085;-44
2022/01/10 06:54:34;;;;;;;34.73;19.00;;;5.40;88.30;;;;;;1838878;77;21069;-45
2022/01/10 06:57:04;;;;;;;27.00;17.17;;;5.50;88.40;;;;;;1872744;75;21084;-44
2022/01/10 06:59:34;;;;;;;28.35;15.20;;;5.50;88.30;;;;;;1872785;77;21540;-44
2022/01/10 07:02:04;;;;;;;18.55;12.13;;;5.50;88.50;;;;;;1872660;76;21077;-46
2022/01/10 07:04:33;;;;;;;20.52;13.45;;;5.60;88.40;;;;;;1872637;75;21025;-45
2022/01/10 07:07:05;;;;;;;35.55;22.25;;;5.60;87.50;;;;;;1872663;75;21595;-45
2022/01/10 07:09:37;;;;;;;39.27;24.27;;;5.60;87.00;;;;;;1872744;76;21488;-44
2022/01/10 07:12:08;;;;;;;28.70;16.27;;;5.50;87.60;;;;;;1872134;76;21061;-45
2022/01/10 07:14:39;;;;;;;23.22;12.25;;;5.50;87.50;;;;;;1871425;75;21085;-43
2022/01/10 07:17:10;;;;;;;14.18;9.25;;;5.60;87.80;;;;;;1871267;75;21104;-43
2022/01/10 07:19:40;;;;;;;19.85;10.15;;;5.60;88.30;;;;;;1847818;77;21100;-43
2022/01/10 07:22:10;;;;;;;15.85;9.48;;;5.60;87.70;;;;;;1847647;77;21524;-43
2022/01/10 07:24:40;;;;;;;15.35;8.98;;;5.70;88.10;;;;;;1902521;75;21051;-43
2022/01/10 07:27:09;;;;;;;15.28;9.50;;;5.70;87.60;;;;;;1904443;74;21079;-42
2022/01/10 07:29:39;;;;;;;16.65;10.60;;;5.80;87.70;;;;;;1904350;75;21070;-42
2022/01/10 07:32:09;;;;;;;20.10;11.18;;;5.80;87.80;;;;;;1904294;75;21322;-42
2022/01/10 07:34:38;;;;;;;19.32;11.75;;;5.80;88.00;;;;;;1904491;74;21145;-42
2022/01/10 07:37:07;;;;;;;22.90;13.10;;;5.90;88.10;;;;;;1904445;74;21073;-43
2022/01/10 07:39:36;;;;;;;31.93;16.07;;;5.90;87.10;;;;;;1904361;75;21023;-43
2022/01/10 07:42:06;;;;;;;36.17;19.05;;;5.90;87.30;;;;;;1904505;74;21039;-43
2022/01/10 07:44:43;;;;;;;40.70;20.50;;;5.90;87.80;;;;;;1903821;74;21101;-44
2022/01/10 07:47:13;;;;;;;40.17;19.62;;;6.00;88.10;;;;;;1904360;75;21157;-43
2022/01/10 07:49:42;;;;;;;28.35;15.65;;;6.00;87.40;;;;;;1904504;75;21087;-45
2022/01/10 07:52:11;;;;;;;26.02;13.68;;;6.10;87.90;;;;;;1904544;74;21087;-43
2022/01/10 07:54:41;;;;;;;22.20;14.28;;;6.30;88.40;;;;;;1904445;74;21090;-44
2022/01/10 07:57:10;;;;;;;23.57;13.88;;;6.40;88.70;;;;;;1904486;75;21085;-44
2022/01/10 07:59:40;;;;;;;20.25;14.23;;;6.60;88.90;;;;;;1904509;75;21035;-44
2022/01/10 08:02:10;;;;;;;29.80;14.58;;;6.80;88.50;;;;;;1918844;74;21167;-44
2022/01/10 08:04:40;;;;;;;32.60;16.27;;;7.00;88.50;;;;;;1923892;74;22054;-44
2022/01/10 08:07:08;;;;;;;27.37;14.35;;;7.10;88.30;;;;;;1923971;74;21445;-46
2022/01/10 08:09:38;;;;;;;30.60;14.83;;;7.20;88.00;;;;;;1923929;74;20995;-44
2022/01/10 08:12:09;;;;;;;27.37;15.63;;;7.30;88.00;;;;;;1923812;74;21082;-44
2022/01/10 08:14:38;;;;;;;33.50;16.07;;;7.40;88.00;;;;;;1923812;74;21078;-45
2022/01/10 08:17:07;;;;;;;26.25;14.35;;;7.40;87.90;;;;;;1923808;74;21090;-43
2022/01/10 08:19:37;;;;;;;23.40;13.08;;;7.50;87.90;;;;;;1923808;74;21039;-45
2022/01/10 08:22:07;;;;;;;21.33;12.80;;;7.60;86.60;;;;;;1923720;74;21077;-43
2022/01/10 08:24:37;;;;;;;24.40;13.15;;;7.60;87.10;;;;;;1923931;74;21027;-44
2022/01/10 08:27:07;;;;;;;23.02;13.15;;;7.60;87.50;;;;;;1923806;74;21062;-43
2022/01/10 08:29:36;;;;;;;18.40;12.88;;;7.70;87.50;;;;;;1923754;74;21167;-45
2022/01/10 08:32:06;;;;;;;25.08;15.13;;;7.80;87.40;;;;;;1923783;74;21082;-43
2022/01/10 08:34:35;;;;;;;92.97;37.13;;;7.90;86.30;;;;;;1923728;74;21089;-44
2022/01/10 08:37:05;;;;;;;83.05;34.00;;;7.90;86.40;;;;;;1923795;74;21070;-44
2022/01/10 08:39:34;;;;;;;67.95;28.42;;;7.90;86.20;;;;;;1924067;74;21061;-44
2022/01/10 08:42:04;;;;;;;29.72;15.25;;;7.90;84.60;;;;;;1923769;74;21164;-45
2022/01/10 08:44:33;;;;;;;58.08;24.32;;;7.90;85.60;;;;;;1923726;74;21054;-45
2022/01/10 08:47:03;;;;;;;34.40;17.10;;;7.90;85.80;;;;;;1923855;74;21022;-45
2022/01/10 08:49:32;;;;;;;25.55;14.40;;;7.80;85.40;;;;;;1923750;74;21093;-46
2022/01/10 08:52:01;;;;;;;27.73;13.75;;;7.80;85.30;;;;;;1923787;74;21042;-45
2022/01/10 08:54:31;;;;;;;21.87;12.60;;;7.80;85.10;;;;;;1923731;74;21101;-45
2022/01/10 08:57:01;;;;;;;24.27;12.82;;;7.80;84.80;;;;;;1923901;74;21133;-44
2022/01/10 08:59:30;;;;;;;23.80;12.70;;;7.80;85.40;;;;;;1923685;74;21022;-44
2022/01/10 09:02:01;;;;;;;25.88;14.33;;;7.80;85.60;;;;;;1916036;74;21116;-43
2022/01/10 09:04:30;;;;;;;40.12;18.57;;;7.90;85.20;;;;;;1904569;75;21031;-44
2022/01/10 09:07:02;;;;;;;56.08;23.92;;;7.90;84.50;;;;;;1904455;75;21019;-44
2022/01/10 09:09:31;;;;;;;44.77;21.42;;;7.90;85.30;;;;;;1904388;75;21123;-45
2022/01/10 09:12:00;;;;;;;38.05;18.05;;;7.90;84.70;;;;;;1904621;75;21446;-45
2022/01/10 09:14:29;;;;;;;32.03;17.32;;;8.00;84.50;;;;;;1904391;75;21097;-44
2022/01/10 09:16:58;;;;;;;41.08;19.17;;;8.00;84.80;;;;;;1904483;75;21023;-45
2022/01/10 09:19:28;;;;;;;42.30;21.02;;;8.00;85.20;;;;;;1904420;75;21073;-44
2022/01/10 09:21:57;;;;;;;32.13;15.43;;;8.10;85.20;;;;;;1904563;75;21036;-44
2022/01/10 09:24:27;;;;;;;21.07;10.93;;;8.10;84.70;;;;;;1904539;75;21027;-44
2022/01/10 09:26:56;;;;;;;18.87;9.85;;;8.20;84.10;;;;;;1904704;75;21000;-44
2022/01/10 09:29:26;;;;;;;16.77;10.18;;;8.20;84.30;;;;;;1904420;75;21059;-44
2022/01/10 09:31:56;;;;;;;13.30;8.60;;;8.30;84.80;;;;;;1904501;74;21144;-45
2022/01/10 09:34:25;;;;;;;13.22;8.40;;;8.30;83.30;;;;;;1904996;75;21188;-43
2022/01/10 09:36:55;;;;;;;16.57;10.40;;;8.40;83.20;;;;;;1904450;75;21417;-43
2022/01/10 09:39:24;;;;;;;23.98;11.30;;;8.50;83.10;;;;;;1904614;75;21015;-44
2022/01/10 09:41:56;;;;;;;32.88;14.68;;;8.50;83.00;;;;;;1904576;74;21133;-44
2022/01/10 09:44:25;;;;;;;37.75;16.17;;;8.60;83.80;;;;;;1904477;74;21078;-44
2022/01/10 09:46:54;;;;;;;33.48;15.95;;;8.60;83.80;;;;;;1904571;75;21015;-43
2022/01/10 09:49:23;;;;;;;30.82;14.13;;;8.70;83.30;;;;;;1904542;75;21028;-43
2022/01/10 09:51:53;;;;;;;23.30;12.78;;;8.80;83.20;;;;;;1904802;75;21023;-44
2022/01/10 09:54:22;;;;;;;25.68;11.65;;;8.80;83.60;;;;;;1904789;75;21027;-44
2022/01/10 09:56:51;;;;;;;17.75;9.35;;;8.90;82.40;;;;;;1904829;75;21003;-43
2022/01/10 09:59:21;;;;;;;17.02;9.05;;;9.00;82.80;;;;;;1904409;75;21164;-46
2022/01/10 10:01:51;;;;;;;16.35;9.45;;;9.10;82.40;;;;;;1906515;74;21069;-43
2022/01/10 10:04:21;;;;;;;14.28;8.00;;;9.10;82.70;;;;;;1924074;74;21073;-44
2022/01/10 10:06:51;;;;;;;18.10;8.75;;;9.20;82.90;;;;;;1923819;74;21070;-44
2022/01/10 10:09:21;;;;;;;35.30;16.23;;;9.20;82.40;;;;;;1924018;74;21010;-44
2022/01/10 10:11:53;;;;;;;13.70;9.13;;;9.30;82.40;;;;;;1923915;74;21421;-44
2022/01/10 10:14:23;;;;;;;16.15;7.47;;;9.30;81.90;;;;;;1924041;74;21090;-45
2022/01/10 10:16:54;;;;;;;12.50;8.25;;;9.40;81.90;;;;;;1923932;74;21031;-44
2022/01/10 10:19:26;;;;;;;19.98;11.83;;;9.40;81.10;;;;;;1924026;74;21413;-45
2022/01/10 10:21:58;;;;;;;22.93;12.75;;;9.50;82.20;;;;;;1923856;74;21144;-44
2022/01/10 10:24:28;;;;;;;18.10;9.20;;;9.60;82.20;;;;;;1923957;74;21093;-44
2022/01/10 10:26:58;;;;;;;14.90;9.13;;;9.70;82.10;;;;;;1923909;74;21123;-45
2022/01/10 10:29:27;;;;;;;18.25;12.25;;;9.70;81.60;;;;;;1923962;74;21066;-45
2022/01/10 10:31:57;;;;;;;21.70;11.22;;;9.80;82.00;;;;;;1924058;74;20998;-44
2022/01/10 10:34:29;;;;;;;14.55;9.08;;;9.80;82.20;;;;;;1923890;74;21088;-44
2022/01/10 10:37:09;;;;;;;18.52;10.65;;;9.90;82.30;;;;;;1923997;74;21183;-44
2022/01/10 10:39:44;;;;;;;17.10;9.00;;;9.90;82.10;;;;;;1923970;74;21034;-43
2022/01/10 10:42:16;;;;;;;17.98;11.43;;;10.00;82.30;;;;;;1924042;74;21031;-44
2022/01/10 10:44:46;;;;;;;13.75;9.98;;;10.00;82.10;;;;;;1923978;74;21023;-45
2022/01/10 10:47:17;;;;;;;13.13;8.60;;;10.10;82.00;;;;;;1924158;74;21090;-45
2022/01/10 10:49:51;;;;;;;15.88;7.28;;;10.10;82.30;;;;;;1923922;74;21132;-46
2022/01/10 10:52:19;;;;;;;14.85;7.80;;;10.20;82.30;;;;;;1923918;74;21159;-45
2022/01/10 10:54:48;;;;;;;14.23;7.97;;;10.20;82.20;;;;;;1924063;74;21148;-46
2022/01/10 10:57:17;;;;;;;18.02;10.28;;;10.20;82.40;;;;;;1923929;74;21026;-47
2022/01/10 10:59:47;;;;;;;14.70;8.55;;;10.30;82.20;;;;;;1923876;74;21078;-45
2022/01/10 11:02:18;;;;;;;17.85;9.43;;;10.40;82.30;;;;;;1923766;74;21105;-46
2022/01/10 11:04:47;;;;;;;24.47;10.50;;;10.40;82.00;;;;;;1923764;74;21047;-45
2022/01/10 11:07:21;;;;;;;18.30;9.00;;;10.50;82.20;;;;;;1923903;74;21018;-45
2022/01/10 11:09:49;;;;;;;18.02;9.55;;;10.60;82.00;;;;;;1923769;73;21034;-46
2022/01/10 11:12:23;;;;;;;16.65;10.43;;;10.70;81.80;;;;;;1923917;74;21038;-45
2022/01/10 11:14:59;;;;;;;18.92;10.48;;;10.70;81.80;;;;;;1924163;74;21073;-47
2022/01/10 11:17:30;;;;;;;14.07;8.60;;;10.80;82.10;;;;;;1924280;74;21449;-47
2022/01/10 11:20:10;;;;;;;17.95;7.58;;;10.90;81.90;;;;;;1924014;74;21050;-46
2022/01/10 11:22:41;;;;;;;13.48;7.08;;;10.90;82.10;;;;;;1923956;74;21477;-45
2022/01/10 11:25:28;;;;;;;9.15;6.97;;;10.90;82.00;;;;;;1924164;74;21054;-47
2022/01/10 11:28:00;;;;;;;8.40;6.33;;;10.90;81.60;;;;;;1924021;74;21102;-45
2022/01/10 11:30:41;;;;;;;13.72;6.87;;;11.00;82.10;;;;;;1924153;74;21034;-46
2022/01/10 11:33:11;;;;;;;11.28;6.17;;;11.00;81.90;;;;;;1924015;74;21323;-45
2022/01/10 11:35:46;;;;;;;13.48;6.47;;;11.00;81.90;;;;;;1923990;74;21085;-45
2022/01/10 11:38:20;;;;;;;12.80;6.35;;;11.00;82.10;;;;;;1924164;74;21014;-46
2022/01/10 11:40:59;;;;;;;11.48;6.25;;;11.00;82.10;;;;;;1923930;74;21089;-47
2022/01/10 11:43:43;;;;;;;11.90;6.90;;;11.00;82.10;;;;;;1915258;74;21074;-47
2022/01/10 11:46:22;;;;;;;11.70;7.27;;;11.00;82.20;;;;;;1924462;74;21528;-46
2022/01/10 11:49:06;;;;;;;13.05;6.40;;;11.00;81.70;;;;;;1924101;74;21583;-46
2022/01/10 11:51:38;;;;;;;12.35;6.58;;;11.00;82.10;;;;;;1922827;74;21042;-48
2022/01/10 11:54:31;;;;;;;15.75;7.92;;;11.00;81.80;;;;;;1923940;74;21046;-46
2022/01/10 11:57:02;;;;;;;10.85;6.80;;;11.00;81.80;;;;;;1903239;74;21074;-45
2022/01/10 11:59:37;;;;;;;12.47;6.78;;;11.10;81.80;;;;;;1924027;74;21019;-46
2022/01/10 12:02:18;;;;;;;34.85;10.03;;;11.10;81.90;;;;;;1924009;74;21135;-47
2022/01/10 12:04:49;;;;;;;20.48;8.63;;;11.10;81.90;;;;;;1907402;74;21117;-45
2022/01/10 12:07:22;;;;;;;13.80;7.78;;;11.10;81.90;;;;;;1904693;75;21140;-45
2022/01/10 12:09:53;;;;;;;13.55;6.90;;;11.10;82.20;;;;;;1904566;75;21085;-45
2022/01/10 12:12:30;;;;;;;19.87;9.25;;;11.10;81.80;;;;;;1904626;74;21074;-45
2022/01/10 12:14:56;;;;;;;18.05;10.88;;;11.10;81.90;;;;;;1904059;74;21050;-45
2022/01/10 12:17:26;;;;;;;23.05;11.43;;;11.10;81.80;;;;;;1905363;75;21066;-47
2022/01/10 12:19:57;;;;;;;19.90;10.85;;;11.10;81.50;;;;;;1905342;75;21024;-46
2022/01/10 12:22:28;;;;;;;17.52;10.58;;;11.10;81.40;;;;;;1905341;74;21039;-46
2022/01/10 12:24:57;;;;;;;18.15;11.65;;;11.20;81.40;;;;;;1905327;75;21027;-45
2022/01/10 12:27:26;;;;;;;24.32;12.63;;;11.20;81.30;;;;;;1905371;74;21504;-47
2022/01/10 12:29:56;;;;;;;34.90;16.80;;;11.20;81.30;;;;;;1905232;75;21320;-45
2022/01/10 12:32:25;;;;;;;23.85;13.88;;;11.10;81.10;;;;;;1905380;75;21398;-46
2022/01/10 12:34:54;;;;;;;17.35;10.75;;;11.10;81.20;;;;;;1905326;75;21039;-46
2022/01/10 12:37:25;;;;;;;20.00;12.50;;;11.10;81.10;;;;;;1905171;75;21000;-45
2022/01/10 12:39:56;;;;;;;21.33;13.38;;;11.10;81.20;;;;;;1905218;74;21020;-46
2022/01/10 12:42:28;;;;;;;24.37;12.43;;;11.00;81.20;;;;;;1905320;74;21022;-45
2022/01/10 12:44:58;;;;;;;32.00;13.15;;;11.00;81.30;;;;;;1905168;75;21019;-46
2022/01/10 12:47:27;;;;;;;20.62;10.43;;;11.00;81.30;;;;;;1905149;75;21023;-46
2022/01/10 12:49:56;;;;;;;19.40;11.68;;;10.90;81.40;;;;;;1905258;74;21074;-45
2022/01/10 12:52:26;;;;;;;19.70;9.85;;;10.90;81.50;;;;;;1905343;75;21140;-46
2022/01/10 12:54:55;;;;;;;25.10;10.23;;;10.80;81.50;;;;;;1905427;74;21559;-45
2022/01/10 12:57:24;;;;;;;20.60;10.08;;;10.80;81.50;;;;;;1905432;75;21474;-45
2022/01/10 12:59:56;;;;;;;28.65;11.03;;;10.70;81.60;;;;;;1905366;74;21003;-45
2022/01/10 13:02:26;;;;;;;30.10;10.35;;;10.70;81.70;;;;;;1905312;74;21079;-45
2022/01/10 13:04:56;;;;;;;33.92;12.25;;;10.70;81.90;;;;;;1917446;74;21027;-47